createdAt,value
2023-08-29T08:14:23.489Z,4.93
2023-08-29T08:16:52.742Z,4.80
2023-08-29T08:19:21.374Z,5.95
2023-08-29T08:21:51.444Z,5.45
2023-08-29T08:24:20.073Z,5.00
2023-08-29T08:26:48.987Z,5.70
2023-08-29T08:29:17.478Z,6.30
2023-08-29T08:31:47.926Z,5.90
2023-08-29T08:34:16.530Z,6.35
2023-08-29T08:36:45.444Z,6.00
2023-08-29T08:39:14.074Z,7.65
2023-08-29T08:41:43.595Z,7.70
2023-08-29T08:44:17.440Z,6.38
2023-08-29T08:46:46.556Z,6.82
2023-08-29T08:49:15.118Z,6.53
2023-08-29T08:51:44.307Z,7.35
2023-08-29T08:54:13.187Z,7.95
2023-08-29T08:56:43.526Z,7.97
2023-08-29T08:59:12.203Z,8.32
2023-08-29T09:01:41.168Z,8.52
2023-08-29T09:04:10.501Z,8.40
2023-08-29T09:06:39.934Z,9.27
2023-08-29T09:09:24.137Z,22.27
2023-08-29T09:11:57.265Z,12.35
2023-08-29T09:14:27.626Z,11.65
2023-08-29T09:16:58.281Z,11.32
2023-08-29T09:19:27.717Z,9.80
2023-08-29T09:21:56.669Z,9.73
2023-08-29T09:24:35.463Z,9.73
2023-08-29T09:27:13.203Z,10.38
2023-08-29T09:29:41.890Z,9.82
2023-08-29T09:32:17.163Z,10.35
2023-08-29T09:34:45.718Z,11.18
2023-08-29T09:37:14.713Z,9.73
2023-08-29T09:39:43.275Z,9.93
2023-08-29T09:42:13.022Z,9.45
2023-08-29T09:44:42.223Z,9.65
2023-08-29T09:47:12.643Z,8.95
2023-08-29T09:49:47.342Z,9.65
2023-08-29T09:52:17.680Z,10.10
2023-08-29T09:54:50.836Z,10.95
2023-08-29T09:57:22.938Z,10.13
2023-08-29T09:59:53.710Z,10.52
2023-08-29T10:02:24.618Z,11.13
2023-08-29T10:07:30.809Z,10.18
2023-08-29T10:09:59.440Z,11.43
2023-08-29T10:12:29.793Z,11.20
2023-08-29T10:14:58.707Z,10.93
2023-08-29T10:17:32.148Z,10.82
2023-08-29T10:20:01.212Z,10.75
2023-08-29T10:22:31.578Z,10.93
2023-08-29T10:25:02.293Z,12.00
2023-08-29T10:27:34.830Z,10.55
2023-08-29T10:30:07.049Z,12.18
2023-08-29T10:32:36.496Z,10.48
2023-08-29T10:35:05.498Z,11.50
2023-08-29T10:37:34.473Z,11.55
2023-08-29T10:40:13.192Z,12.25
2023-08-29T10:42:57.967Z,10.55
2023-08-29T10:45:49.406Z,10.35
2023-08-29T10:48:19.776Z,10.90
2023-08-29T10:50:52.816Z,10.65
2023-08-29T10:53:21.842Z,11.70
2023-08-29T10:56:04.013Z,10.60
2023-08-29T10:58:38.192Z,12.50
2023-08-29T11:01:08.051Z,10.43
2023-08-29T11:03:43.820Z,10.82
2023-08-29T11:06:12.439Z,11.05
2023-08-29T11:08:41.337Z,11.57
2023-08-29T11:11:16.832Z,10.85
2023-08-29T11:14:04.768Z,11.88
2023-08-29T11:16:36.952Z,12.10
2023-08-29T11:19:12.917Z,11.27
2023-08-29T11:21:48.488Z,13.38
2023-08-29T11:24:17.667Z,12.18
2023-08-29T11:26:47.769Z,11.77
2023-08-29T11:31:47.722Z,11.45
2023-08-29T11:34:19.623Z,11.43
2023-08-29T11:36:54.703Z,11.32
2023-08-29T11:39:23.747Z,10.82
2023-08-29T11:41:59.431Z,11.40
2023-08-29T11:44:58.589Z,10.90
2023-08-29T11:47:31.283Z,11.97
2023-08-29T11:50:00.209Z,10.02
2023-08-29T11:52:28.698Z,12.35
2023-08-29T11:54:58.288Z,12.38
2023-08-29T11:57:32.416Z,12.55
2023-08-29T12:00:01.357Z,11.77
2023-08-29T12:02:32.324Z,10.25
2023-08-29T12:05:01.241Z,60.83
2023-08-29T12:07:33.760Z,15.00
2023-08-29T12:10:17.717Z,12.35
2023-08-29T12:12:46.304Z,12.07
2023-08-29T12:15:27.537Z,12.32
2023-08-29T12:18:07.165Z,11.55
2023-08-29T12:20:38.320Z,11.52
2023-08-29T12:23:06.884Z,12.07
2023-08-29T12:25:36.324Z,13.07
2023-08-29T12:28:05.419Z,13.18
2023-08-29T12:30:36.066Z,13.33
2023-08-29T12:33:07.370Z,13.77
2023-08-29T12:35:36.663Z,12.85
2023-08-29T12:38:05.680Z,14.02
2023-08-29T12:40:35.129Z,14.37
2023-08-29T12:43:04.934Z,15.05
2023-08-29T12:45:44.591Z,15.65
2023-08-29T12:48:22.278Z,13.50
2023-08-29T12:50:51.676Z,13.80
2023-08-29T12:53:20.265Z,12.75
2023-08-29T12:55:49.342Z,14.15
2023-08-29T12:58:19.344Z,14.88
2023-08-29T13:00:48.899Z,13.02
2023-08-29T13:03:17.457Z,13.60
2023-08-29T13:05:47.198Z,14.87
2023-08-29T13:08:16.996Z,13.25
2023-08-29T13:10:45.887Z,12.55
2023-08-29T13:13:14.378Z,11.98
2023-08-29T13:15:51.034Z,12.52
2023-08-29T13:18:22.408Z,13.38
2023-08-29T13:20:51.413Z,13.40
2023-08-29T13:23:20.113Z,13.30
2023-08-29T13:25:49.074Z,13.05
2023-08-29T13:28:17.580Z,13.80
2023-08-29T13:30:46.486Z,13.00
2023-08-29T13:33:14.981Z,12.35
2023-08-29T13:35:43.939Z,12.05
2023-08-29T13:38:12.513Z,12.65
2023-08-29T13:40:43.999Z,11.50
2023-08-29T13:43:14.172Z,10.65
2023-08-29T13:45:43.271Z,10.35
2023-08-29T13:48:12.047Z,10.63
2023-08-29T13:50:41.595Z,10.68
2023-08-29T13:53:10.860Z,10.23
2023-08-29T13:55:39.959Z,10.35
2023-08-29T13:58:08.764Z,10.43
2023-08-29T14:00:37.952Z,10.95
2023-08-29T14:03:06.612Z,10.27
2023-08-29T14:05:36.259Z,9.40
2023-08-29T14:08:05.553Z,9.98
2023-08-29T14:10:34.998Z,9.95
2023-08-29T14:13:03.590Z,10.40
2023-08-29T14:15:32.521Z,10.25
2023-08-29T14:18:01.099Z,10.10
2023-08-29T14:20:30.032Z,9.30
2023-08-29T14:23:02.282Z,10.40
2023-08-29T14:25:31.275Z,9.57
2023-08-29T14:28:01.332Z,10.32
2023-08-29T14:30:30.183Z,9.85
2023-08-29T14:32:58.777Z,10.00
2023-08-29T14:35:27.654Z,9.82
2023-08-29T14:37:56.182Z,10.38
2023-08-29T14:40:27.647Z,10.10
2023-08-29T14:42:56.194Z,9.70
2023-08-29T14:45:25.128Z,9.93
2023-08-29T14:47:54.474Z,11.35
2023-08-29T14:50:25.791Z,11.20
2023-08-29T14:52:54.702Z,10.25
2023-08-29T14:55:25.082Z,10.43
2023-08-29T14:57:54.823Z,10.38
2023-08-29T15:00:23.801Z,10.55
2023-08-29T15:02:53.108Z,10.43
2023-08-29T15:05:22.034Z,9.77
2023-08-29T15:07:50.624Z,9.50
2023-08-29T15:10:19.575Z,9.68
2023-08-29T15:12:48.037Z,9.65
2023-08-29T15:15:18.583Z,9.98
2023-08-29T15:17:48.173Z,10.85
2023-08-29T15:20:17.173Z,10.40
2023-08-29T15:22:46.086Z,9.30
2023-08-29T15:25:15.044Z,10.00
2023-08-29T15:27:43.592Z,10.98
2023-08-29T15:30:12.737Z,10.00
2023-08-29T15:32:41.355Z,9.70
2023-08-29T15:35:10.714Z,9.65
2023-08-29T15:37:39.261Z,15.43
2023-08-29T15:40:12.903Z,11.98
2023-08-29T15:42:41.469Z,29.73
2023-08-29T15:45:10.834Z,11.68
2023-08-29T15:47:39.504Z,11.32
2023-08-29T15:50:08.899Z,10.75
2023-08-29T15:52:37.550Z,11.10
2023-08-29T15:55:06.993Z,16.48
2023-08-29T15:57:35.539Z,12.88
2023-08-29T16:00:11.019Z,11.80
2023-08-29T16:02:39.680Z,10.52
2023-08-29T16:05:08.985Z,10.88
2023-08-29T16:07:37.672Z,12.38
2023-08-29T16:10:07.489Z,11.00
2023-08-29T16:12:36.031Z,25.83
2023-08-29T16:15:05.234Z,18.42
2023-08-29T16:17:35.880Z,13.10
2023-08-29T16:20:07.419Z,13.63
2023-08-29T16:22:37.111Z,12.82
2023-08-29T16:25:07.349Z,17.23
2023-08-29T16:27:37.215Z,16.17
2023-08-29T16:30:09.102Z,15.10
2023-08-29T16:32:37.912Z,13.85
2023-08-29T16:35:07.315Z,12.57
2023-08-29T16:37:38.722Z,12.93
2023-08-29T16:40:12.302Z,11.55
2023-08-29T16:42:40.884Z,11.93
2023-08-29T16:45:10.850Z,12.07
2023-08-29T16:47:41.187Z,10.95
2023-08-29T16:50:10.730Z,11.95
2023-08-29T16:52:39.284Z,11.80
2023-08-29T16:55:08.670Z,12.18
2023-08-29T16:57:37.232Z,10.73
2023-08-29T17:00:11.716Z,10.60
2023-08-29T17:02:40.368Z,11.88
2023-08-29T17:05:09.745Z,11.82
2023-08-29T17:07:38.280Z,12.00
2023-08-29T17:10:07.678Z,10.80
2023-08-29T17:12:36.444Z,11.18
2023-08-29T17:15:06.242Z,12.20
2023-08-29T17:17:35.541Z,11.93
2023-08-29T17:20:05.236Z,12.45
2023-08-29T17:22:33.864Z,12.75
2023-08-29T17:25:03.879Z,12.20
2023-08-29T17:27:32.411Z,12.52
2023-08-29T17:30:06.642Z,11.82
2023-08-29T17:32:35.645Z,12.30
2023-08-29T17:35:05.176Z,11.98
2023-08-29T17:37:36.472Z,13.27
2023-08-29T17:40:05.921Z,12.52
2023-08-29T17:42:34.439Z,11.80
2023-08-29T17:45:05.869Z,12.13
2023-08-29T17:47:36.721Z,12.65
2023-08-29T17:50:07.215Z,12.57
2023-08-29T17:52:35.828Z,11.15
2023-08-29T17:55:05.064Z,12.18
2023-08-29T17:57:33.722Z,12.23
2023-08-29T18:00:02.658Z,10.85
2023-08-29T18:02:34.017Z,11.05
2023-08-29T18:05:03.107Z,10.52
2023-08-29T18:07:31.632Z,11.65
2023-08-29T18:10:08.461Z,10.52
2023-08-29T18:12:38.889Z,10.90
2023-08-29T18:17:37.232Z,11.15
2023-08-29T18:20:06.904Z,11.48
2023-08-29T18:22:35.776Z,10.98
2023-08-29T18:25:05.767Z,10.63
2023-08-29T18:27:34.487Z,11.55
2023-08-29T18:30:04.159Z,10.85
2023-08-29T18:32:33.203Z,10.73
2023-08-29T18:35:02.663Z,10.55
2023-08-29T18:37:31.166Z,10.52
2023-08-29T18:40:00.116Z,11.00
2023-08-29T18:42:28.891Z,11.40
2023-08-29T18:44:57.705Z,12.05
2023-08-29T18:47:26.272Z,10.52
2023-08-29T19:46:51.026Z,13.30
2023-08-29T19:49:20.146Z,15.38
2023-08-29T19:51:48.671Z,14.20
2023-08-29T19:54:17.584Z,15.00
2023-08-29T19:56:46.983Z,15.05
2023-08-29T19:59:16.101Z,14.07
2023-08-29T20:01:44.628Z,13.68
2023-08-29T20:04:13.537Z,14.45
2023-08-29T20:06:43.623Z,14.23
2023-08-29T20:09:12.905Z,14.30
2023-08-29T20:11:41.516Z,14.93
2023-08-29T20:14:10.430Z,15.20
2023-08-29T20:16:38.964Z,15.50
2023-08-29T20:19:07.973Z,15.70
2023-08-29T20:21:36.474Z,15.55
2023-08-29T20:24:05.590Z,15.52
2023-08-29T20:26:34.133Z,15.27
2023-08-29T20:29:03.051Z,15.10
2023-08-29T20:31:32.110Z,15.13
2023-08-29T20:34:00.988Z,16.13
2023-08-29T20:36:29.566Z,15.88
2023-08-29T20:38:58.520Z,15.15
2023-08-29T20:41:27.152Z,16.60
2023-08-29T20:43:56.003Z,15.35
2023-08-29T20:46:24.752Z,16.48
2023-08-29T20:48:54.065Z,16.30
2023-08-29T20:51:22.990Z,18.92
2023-08-29T20:53:51.920Z,17.63
2023-08-29T20:56:21.001Z,16.35
2023-08-29T20:58:49.960Z,16.83
2023-08-29T21:01:18.482Z,16.73
2023-08-29T21:03:53.360Z,17.02
2023-08-29T21:06:22.021Z,17.58
2023-08-29T21:08:50.885Z,16.95
2023-08-29T21:11:19.399Z,16.88
2023-08-29T21:13:49.242Z,17.70
2023-08-29T21:16:17.841Z,16.75
2023-08-29T21:18:46.766Z,18.02
2023-08-29T21:21:16.046Z,17.23
2023-08-29T21:23:46.425Z,16.92
2023-08-29T21:26:14.920Z,17.63
2023-08-29T21:28:43.884Z,17.77
2023-08-29T21:31:12.437Z,17.75
2023-08-29T21:33:41.474Z,17.20
2023-08-29T21:36:10.020Z,18.15
2023-08-29T21:38:38.934Z,17.58
2023-08-29T21:41:07.530Z,18.05
2023-08-29T21:43:36.381Z,17.77
2023-08-29T21:46:06.942Z,18.50
2023-08-29T21:48:36.455Z,17.50
2023-08-29T21:51:05.710Z,17.55
2023-08-29T21:53:34.950Z,18.55
2023-08-29T21:56:09.993Z,18.23
2023-08-29T21:58:39.029Z,17.73
2023-08-29T22:01:10.603Z,19.58
2023-08-29T22:03:39.578Z,18.20
2023-08-29T22:06:08.203Z,19.33
2023-08-29T22:08:37.283Z,19.08
2023-08-29T22:11:05.947Z,20.45
2023-08-29T22:13:36.190Z,21.00
2023-08-29T22:16:05.335Z,22.80
2023-08-29T22:18:34.256Z,20.85
2023-08-29T22:21:04.310Z,22.80
2023-08-29T22:23:34.020Z,23.63
2023-08-29T22:26:07.120Z,23.33
2023-08-29T22:28:36.167Z,23.98
2023-08-29T22:31:04.717Z,23.88
2023-08-29T22:33:34.788Z,23.95
2023-08-29T22:36:03.405Z,24.35
2023-08-29T22:38:32.263Z,24.75
2023-08-29T22:41:15.352Z,24.08
2023-08-29T22:43:47.453Z,24.83
2023-08-29T22:46:16.104Z,27.25
2023-08-29T22:48:45.016Z,25.25
2023-08-29T22:51:13.550Z,25.52
2023-08-29T22:53:42.573Z,25.45
2023-08-29T22:56:11.120Z,26.52
2023-08-29T22:58:40.005Z,26.95
